Date,TemperatureHighF,TemperatureAvgF,TemperatureLowF,DewpointHighF,DewpointAvgF,DewpointLowF,HumidityHigh,HumidityAvg,HumidityLow,PressureMaxIn,PressureMinIn,WindSpeedMaxMPH,WindSpeedAvgMPH,GustSpeedMaxMPH,PrecipitationSumIn
2013-12-1,47,37,26,34,29,24,93,75,52,30.27,30.11,8,1,8,0.00
2013-12-2,44,38,31,40,33,27,92,83,69,30.11,29.82,15,3,15,0.01
2013-12-3,50,46,41,50,45,39,100,97,88,29.82,29.72,15,7,19,0.00
2013-12-4,56,50,37,55,48,32,99,93,79,29.86,29.53,21,7,25,0.00
2013-12-5,37,25,20,32,16,9,85,70,60,30.53,29.85,18,6,24,0.01
2013-12-6,20,17,12,11,7,3,71,66,59,30.91,30.51,15,4,15,0.00
2013-12-7,20,13,7,4,2,0,77,62,42,31.08,30.90,12,3,13,0.00
2013-12-8,25,21,13,23,16,4,92,82,66,30.90,30.25,16,5,18,0.00
2013-12-9,24,17,7,22,9,-3,90,70,54,30.57,30.25,15,4,21,0.00
2013-12-10,25,15,5,11,4,-4,74,61,41,30.64,30.42,22,4,24,0.00
2013-12-11,23,16,2,15,5,-8,79,62,45,30.96,30.55,19,4,20,0.00
2013-12-12,29,15,1,13,4,-7,69,60,49,30.95,30.55,16,4,18,0.00
2013-12-13,38,28,19,30,20,10,95,73,49,30.55,30.25,14,4,19,0.01
2013-12-14,31,28,19,30,26,15,97,93,84,30.26,30.05,13,3,15,0.00
2013-12-15,20,16,11,17,10,7,87,78,69,30.42,30.25,11,3,12,0.00
2013-12-16,21,17,13,19,14,9,92,86,81,30.42,30.30,10,3,12,0.00
2013-12-17,32,24,19,28,20,13,95,84,62,30.45,30.31,14,4,16,0.02
2013-12-18,38,28,13,32,17,7,81,66,41,30.47,30.09,28,7,28,0.18
2013-12-19,46,41,37,44,37,31,93,86,79,30.09,29.87,18,8,22,0.05
2013-12-20,49,40,31,48,39,30,100,98,93,29.96,29.78,11,3,14,0.19
2013-12-21,33,31,29,32,30,28,99,97,96,30.00,29.68,11,1,12,0.00
2013-12-22,33,30,22,32,28,18,98,94,84,30.41,29.73,13,4,16,0.34
2013-12-23,22,13,3,18,6,-6,85,74,64,30.87,30.41,17,5,20,0.00
2013-12-24,20,10,0,10,1,-7,71,67,63,31.00,30.71,21,6,22,0.00
2013-12-25,29,25,20,26,20,9,89,81,62,30.72,30.43,21,6,22,0.00
2013-12-26,37,29,18,27,22,13,87,73,58,30.60,30.42,17,5,22,0.01
2013-12-27,46,36,27,32,28,23,86,74,54,30.54,30.33,16,5,18,0.01
2013-12-28,52,41,34,35,31,28,81,68,50,30.33,30.00,20,7,22,0.00
2013-12-29,38,26,9,30,21,2,96,83,71,30.48,29.92,18,6,21,0.00
2013-12-30,16,10,2,10,1,-5,77,67,51,30.68,30.48,11,3,12,0.00
2013-12-31,26,17,11,15,10,6,81,73,60,30.74,30.52,16,4,17,0.00